CheckWX is a tool to help pilots better visualize weather data.  It is not intended as a substitute for an official pre-flight weather briefing.

18:31:42 UTC

UTDL TAF
Khudzhand Airport
Khudzhand, Tajikistan
TAF UTDL 241500Z 2416/2501 24006MPS 6000 SCT011 OVC050CB TEMPO 2416/2501 VRB02MPS 3100 -SHRA BR BKN006 OVC030CB

Apr-24@
16:00 UTC

Apr-24 @ 16:00 UTC

Apr-25@
01:00 UTC

Apr-25 @ 01:00 UTC

TAF UTDL 241500Z 2416/2501 24006MPS 6000 SCT011 OVC050CB
Wind
  • 240° at 12 KTS
Cloud Levels
  • Scattered at 1,100' AGL
  • Overcast at 5,000' AGL

Apr-24@
16:00 UTC

Apr-24 @ 16:00 UTC

Apr-25@
01:00 UTC

Apr-25 @ 01:00 UTC

TEMPO 2416/2501 VRB02MPS 3100 -SHRA BR BKN006 OVC030CB

Temporary

Temporary Changes expected for less than half the time period

Wind
  • Variable at 4 KTS
Conditions
Light Rain, Mist
Cloud Levels
  • Broken at 600' AGL
  • Overcast at 3,000' AGL